Time;durP1;ratioP1;P1;durP2;ratioP2;P2;SDS_P1;SDS_P2;PMS_P1;PMS_P2;Temp;Humidity;BMP_temperature;BMP_pressure;BME280_temperature;BME280_humidity;BME280_pressure;Samples;Min_cycle;Max_cycle;Signal;HPM_P1;HPM_P2
2022/03/06 00:01:44;;;;;;;;;;;18.70;99.90;;;;;;5047763;28;19936;-58
2022/03/06 00:04:12;;;;;;;;;;;18.70;99.90;;;;;;5040004;28;19929;-57
2022/03/06 00:06:39;;;;;;;;;;;18.70;99.90;;;;;;5048727;28;19951;-62
2022/03/06 00:09:06;;;;;;;;;;;18.60;99.90;;;;;;5045093;28;19925;-60
2022/03/06 00:11:33;;;;;;;;;;;18.70;99.90;;;;;;5044065;28;19948;-60
2022/03/06 00:14:00;;;;;;;;;;;18.70;99.90;;;;;;5038598;28;19932;-63
2022/03/06 00:16:27;;;;;;;;;;;18.60;99.90;;;;;;5049147;28;19956;-62
2022/03/06 00:18:55;;;;;;;;;;;18.60;99.90;;;;;;5036673;28;20324;-62
2022/03/06 00:21:25;;;;;;;;;;;18.60;99.90;;;;;;5048073;28;19928;-66
2022/03/06 00:23:52;;;;;;;;;;;18.60;99.90;;;;;;5034792;28;19925;-61
2022/03/06 00:26:19;;;;;;;;;;;18.60;99.90;;;;;;5048427;28;19929;-63
2022/03/06 00:28:47;;;;;;;;;;;18.60;99.90;;;;;;5036034;28;19937;-62
2022/03/06 00:31:14;;;;;;;;;;;18.60;99.90;;;;;;5051689;28;19940;-59
2022/03/06 00:33:41;;;;;;;;;;;18.60;99.90;;;;;;5047956;28;19929;-61
2022/03/06 00:36:08;;;;;;;;;;;18.60;99.90;;;;;;5053595;28;19935;-59
2022/03/06 00:38:35;;;;;;;;;;;18.60;99.90;;;;;;5045180;28;20504;-58
2022/03/06 00:41:03;;;;;;;;;;;18.50;99.90;;;;;;5040683;28;19929;-60
2022/03/06 00:43:30;;;;;;;;;;;18.50;99.90;;;;;;5044677;28;20340;-63
2022/03/06 00:45:57;;;;;;;;;;;18.50;99.90;;;;;;5046950;28;19929;-60
2022/03/06 00:48:24;;;;;;;;;;;18.50;99.90;;;;;;5047344;28;19929;-64
2022/03/06 00:50:52;;;;;;;;;;;18.50;99.90;;;;;;5046701;28;19931;-60
2022/03/06 00:53:19;;;;;;;;;;;18.40;99.90;;;;;;5048528;28;19937;-62
2022/03/06 00:55:46;;;;;;;;;;;18.40;99.90;;;;;;5050461;28;20318;-61
2022/03/06 00:58:13;;;;;;;;;;;18.40;99.90;;;;;;5032737;28;19925;-61
2022/03/06 01:00:41;;;;;;;;;;;18.40;99.90;;;;;;5038914;28;19925;-59
2022/03/06 01:03:10;;;;;;;;;;;18.40;99.90;;;;;;5045681;28;19936;-61
2022/03/06 01:05:39;;;;;;;;;;;18.40;99.90;;;;;;5041662;28;19939;-60
2022/03/06 01:08:07;;;;;;;;;;;18.40;99.90;;;;;;5046090;28;19932;-63
2022/03/06 01:10:35;;;;;;;;;;;18.40;99.90;;;;;;5033713;28;19928;-61
2022/03/06 01:13:03;;;;;;;;;;;18.40;99.90;;;;;;5037511;28;19929;-59
2022/03/06 01:15:30;;;;;;;;;;;18.30;99.90;;;;;;5045800;28;19929;-65
2022/03/06 01:17:57;;;;;;;;;;;18.30;99.90;;;;;;5040235;28;19929;-61
2022/03/06 01:20:25;;;;;;;;;;;18.30;99.90;;;;;;5031682;28;19935;-62
2022/03/06 01:22:52;;;;;;;;;;;18.30;99.90;;;;;;5044893;28;20254;-62
2022/03/06 01:25:20;;;;;;;;;;;18.30;99.90;;;;;;5050753;28;19928;-60
2022/03/06 01:27:47;;;;;;;;;;;18.30;99.90;;;;;;5045722;28;19940;-60
2022/03/06 01:30:21;;;;;;;;;;;18.30;99.90;;;;;;5033568;28;19928;-60
2022/03/06 01:32:52;;;;;;;;;;;18.30;99.90;;;;;;5035763;28;20640;-62
2022/03/06 01:35:19;;;;;;;;;;;18.20;99.90;;;;;;5032913;28;20419;-60
2022/03/06 01:37:47;;;;;;;;;;;18.20;99.90;;;;;;5043446;28;20413;-59
2022/03/06 01:40:14;;;;;;;;;;;18.20;99.90;;;;;;5029385;28;19936;-63
2022/03/06 01:42:42;;;;;;;;;;;18.20;99.90;;;;;;5041144;28;20308;-59
2022/03/06 01:45:11;;;;;;;;;;;18.20;99.90;;;;;;5037279;28;19936;-60
2022/03/06 01:47:42;;;;;;;;;;;18.20;99.90;;;;;;5047298;28;19932;-59
2022/03/06 01:50:13;;;;;;;;;;;18.20;99.90;;;;;;5030071;28;19936;-60
2022/03/06 01:52:41;;;;;;;;;;;18.20;99.90;;;;;;5048576;28;19929;-60
2022/03/06 01:55:08;;;;;;;;;;;18.20;99.90;;;;;;5034773;28;19940;-58
2022/03/06 01:57:37;;;;;;;;;;;18.20;99.90;;;;;;5049924;28;19929;-62
2022/03/06 02:00:05;;;;;;;;;;;18.20;99.90;;;;;;5058921;28;19932;-64
2022/03/06 02:02:38;;;;;;;;;;;18.20;99.90;;;;;;5053892;28;19928;-59
2022/03/06 02:05:05;;;;;;;;;;;18.10;99.90;;;;;;5072247;28;20514;-59
2022/03/06 02:07:32;;;;;;;;;;;18.10;99.90;;;;;;5031984;28;19929;-57
2022/03/06 02:10:00;;;;;;;;;;;18.10;99.90;;;;;;5034802;28;19929;-61
2022/03/06 02:12:28;;;;;;;;;;;18.10;99.90;;;;;;5031167;28;19925;-61
2022/03/06 02:14:56;;;;;;;;;;;18.10;99.90;;;;;;5044319;28;19929;-61
2022/03/06 02:17:24;;;;;;;;;;;18.10;99.90;;;;;;5033129;28;20404;-61
2022/03/06 02:19:52;;;;;;;;;;;18.10;99.90;;;;;;5038279;28;19931;-63
2022/03/06 02:22:20;;;;;;;;;;;18.10;99.90;;;;;;5034282;28;20552;-62
2022/03/06 02:24:47;;;;;;;;;;;18.10;99.90;;;;;;5035820;28;19936;-63
2022/03/06 02:27:14;;;;;;;;;;;18.10;99.90;;;;;;5036135;28;19929;-61
2022/03/06 02:29:42;;;;;;;;;;;18.10;99.90;;;;;;5027808;28;19936;-58
2022/03/06 02:32:09;;;;;;;;;;;18.10;99.90;;;;;;5042993;28;20035;-63
2022/03/06 02:34:40;;;;;;;;;;;18.00;99.90;;;;;;5031439;28;19933;-60
2022/03/06 02:37:08;;;;;;;;;;;18.00;99.90;;;;;;5042626;28;19933;-59
2022/03/06 02:39:35;;;;;;;;;;;18.00;99.90;;;;;;5046024;28;19929;-60
2022/03/06 02:42:03;;;;;;;;;;;18.00;99.90;;;;;;5040290;28;19936;-61
2022/03/06 02:44:30;;;;;;;;;;;18.00;99.90;;;;;;5031747;28;20020;-62
2022/03/06 02:46:57;;;;;;;;;;;18.00;99.90;;;;;;5041368;28;19940;-60
2022/03/06 02:49:24;;;;;;;;;;;18.00;99.90;;;;;;5034954;28;20390;-63
2022/03/06 02:51:51;;;;;;;;;;;18.00;99.90;;;;;;5041714;28;19929;-62
2022/03/06 02:54:20;;;;;;;;;;;17.90;99.90;;;;;;5043053;28;19944;-63
2022/03/06 02:56:48;;;;;;;;;;;17.90;99.90;;;;;;5080949;28;19989;-59
2022/03/06 02:59:15;;;;;;;;;;;17.90;99.90;;;;;;5051181;28;20345;-65
2022/03/06 03:01:42;;;;;;;;;;;18.00;99.90;;;;;;5045783;28;19929;-63
2022/03/06 03:04:11;;;;;;;;;;;17.90;99.90;;;;;;5038832;28;19944;-62
2022/03/06 03:06:38;;;;;;;;;;;17.90;99.90;;;;;;5048632;28;19936;-64
2022/03/06 03:09:06;;;;;;;;;;;17.90;99.90;;;;;;5034407;28;19929;-60
2022/03/06 03:11:34;;;;;;;;;;;17.90;99.90;;;;;;5045281;28;19932;-60
2022/03/06 03:14:01;;;;;;;;;;;17.90;99.90;;;;;;5041374;28;20039;-61
2022/03/06 03:16:28;;;;;;;;;;;17.90;99.90;;;;;;5041595;28;19964;-59
2022/03/06 03:18:56;;;;;;;;;;;17.80;99.90;;;;;;5029758;28;19992;-60
2022/03/06 03:21:23;;;;;;;;;;;17.90;99.90;;;;;;5044797;28;20511;-62
2022/03/06 03:23:50;;;;;;;;;;;17.90;99.90;;;;;;5042573;28;19929;-58
2022/03/06 03:26:17;;;;;;;;;;;17.80;99.90;;;;;;5040849;28;20332;-62
2022/03/06 03:28:44;;;;;;;;;;;17.80;99.90;;;;;;5039125;28;19929;-59
2022/03/06 03:31:11;;;;;;;;;;;17.80;99.90;;;;;;5036193;28;19929;-63
2022/03/06 03:33:39;;;;;;;;;;;17.80;99.90;;;;;;5041981;28;19933;-62
2022/03/06 03:36:06;;;;;;;;;;;17.80;99.90;;;;;;5042034;28;19929;-63
2022/03/06 03:38:33;;;;;;;;;;;17.80;99.90;;;;;;5045605;28;19928;-60
2022/03/06 03:41:03;;;;;;;;;;;17.80;99.90;;;;;;5034757;28;20273;-60
2022/03/06 03:43:30;;;;;;;;;;;17.80;99.90;;;;;;5040233;28;20317;-63
2022/03/06 03:45:58;;;;;;;;;;;17.80;99.90;;;;;;5038192;28;20392;-60
2022/03/06 03:48:25;;;;;;;;;;;17.80;99.90;;;;;;5027223;28;19929;-60
2022/03/06 03:50:53;;;;;;;;;;;17.80;99.90;;;;;;5038710;28;19929;-59
2022/03/06 03:53:20;;;;;;;;;;;17.80;99.90;;;;;;5041050;28;19929;-60
2022/03/06 03:55:48;;;;;;;;;;;17.80;99.90;;;;;;5029960;28;19944;-63
2022/03/06 03:58:16;;;;;;;;;;;17.70;99.90;;;;;;5029678;28;19940;-60
2022/03/06 04:00:44;;;;;;;;;;;17.70;99.90;;;;;;5037710;28;19928;-61
2022/03/06 04:03:13;;;;;;;;;;;17.70;99.90;;;;;;5044540;28;20328;-62
2022/03/06 04:05:40;;;;;;;;;;;17.70;99.90;;;;;;5045742;28;19928;-59
2022/03/06 04:08:07;;;;;;;;;;;17.70;99.90;;;;;;5041756;28;19925;-59
2022/03/06 04:10:34;;;;;;;;;;;17.70;99.90;;;;;;5036491;28;19928;-62
2022/03/06 04:13:02;;;;;;;;;;;17.80;99.90;;;;;;5048573;28;20411;-61
2022/03/06 04:15:29;;;;;;;;;;;17.70;99.90;;;;;;5044968;28;19936;-62
2022/03/06 04:17:56;;;;;;;;;;;17.80;99.90;;;;;;5045673;28;19933;-61
2022/03/06 04:20:24;;;;;;;;;;;17.70;99.90;;;;;;5042377;28;19929;-63
2022/03/06 04:22:51;;;;;;;;;;;17.70;99.90;;;;;;5048162;28;19932;-64
2022/03/06 04:25:18;;;;;;;;;;;17.70;99.90;;;;;;5044135;28;19924;-60
2022/03/06 04:27:45;;;;;;;;;;;17.70;99.90;;;;;;5046988;28;19932;-63
2022/03/06 04:30:12;;;;;;;;;;;17.70;99.90;;;;;;5040413;28;20007;-59
2022/03/06 04:32:40;;;;;;;;;;;17.80;99.90;;;;;;5047878;28;20147;-62
2022/03/06 04:35:07;;;;;;;;;;;17.80;99.90;;;;;;5042705;28;19925;-61
2022/03/06 04:37:34;;;;;;;;;;;17.80;99.90;;;;;;5046428;28;19936;-60
2022/03/06 04:40:02;;;;;;;;;;;17.90;99.90;;;;;;5044525;28;20015;-61
2022/03/06 04:42:29;;;;;;;;;;;17.90;99.90;;;;;;5038651;28;19932;-63
2022/03/06 04:44:56;;;;;;;;;;;17.90;99.90;;;;;;5037069;28;19928;-62
2022/03/06 04:47:24;;;;;;;;;;;17.90;99.90;;;;;;5047963;28;19929;-61
2022/03/06 04:49:51;;;;;;;;;;;17.90;99.90;;;;;;5042217;28;19929;-63
2022/03/06 04:52:18;;;;;;;;;;;18.00;99.90;;;;;;5053552;28;20308;-61
2022/03/06 04:54:45;;;;;;;;;;;17.90;99.90;;;;;;5033088;28;20431;-65
2022/03/06 04:57:14;;;;;;;;;;;18.00;99.90;;;;;;5063683;28;20376;-59
2022/03/06 04:59:41;;;;;;;;;;;18.00;99.90;;;;;;5031728;28;20654;-58
2022/03/06 05:02:08;;;;;;;;;;;18.10;99.90;;;;;;5042341;28;19948;-59
2022/03/06 05:04:35;;;;;;;;;;;18.20;99.90;;;;;;5032454;28;19936;-60
2022/03/06 05:07:03;;;;;;;;;;;18.40;99.90;;;;;;5048656;28;19928;-61
2022/03/06 05:09:30;;;;;;;;;;;18.50;99.90;;;;;;5035058;28;19940;-66
2022/03/06 05:11:57;;;;;;;;;;;18.70;99.90;;;;;;5049857;28;20276;-61
2022/03/06 05:14:24;;;;;;;;;;;18.90;99.90;;;;;;5051754;28;19929;-62
2022/03/06 05:16:51;;;;;;;;;;;19.00;99.90;;;;;;5038239;28;19924;-61
2022/03/06 05:19:18;;;;;;;;;;;19.10;99.90;;;;;;5045179;28;19932;-66
2022/03/06 05:21:45;;;;;;;;;;;19.30;99.90;;;;;;5045322;28;19932;-68
2022/03/06 05:24:12;;;;;;;;;;;19.50;99.90;;;;;;5038234;28;20008;-65
2022/03/06 05:26:40;;;;;;;;;;;19.70;99.90;;;;;;5039944;28;19933;-60
2022/03/06 05:29:07;;;;;;;;;;;19.90;99.90;;;;;;5039837;28;19924;-64
2022/03/06 05:31:34;;;;;;;;;;;20.10;99.90;;;;;;5036333;28;19936;-59
2022/03/06 05:34:01;;;;;;;;;;;20.30;99.90;;;;;;5041709;28;20527;-61
2022/03/06 05:36:28;;;;;;;;;;;20.40;99.90;;;;;;5040357;28;19932;-66
2022/03/06 05:38:56;;;;;;;;;;;20.50;99.90;;;;;;5040297;28;20620;-62
2022/03/06 05:41:23;;;;;;;;;;;20.70;99.90;;;;;;5040621;28;19933;-62
2022/03/06 05:43:50;;;;;;;;;;;20.80;99.90;;;;;;5040993;28;19940;-64
2022/03/06 05:46:17;;;;;;;;;;;21.00;99.90;;;;;;5041475;28;19933;-64
2022/03/06 05:48:44;;;;;;;;;;;21.10;99.90;;;;;;5038945;28;20474;-63
2022/03/06 05:51:11;;;;;;;;;;;21.30;99.90;;;;;;5041617;28;19928;-63
2022/03/06 05:53:38;;;;;;;;;;;21.30;99.90;;;;;;5041625;28;19928;-59
2022/03/06 05:56:05;;;;;;;;;;;21.30;99.90;;;;;;5040254;28;19991;-64
2022/03/06 05:58:33;;;;;;;;;;;21.40;99.90;;;;;;5040276;28;19951;-63
2022/03/06 06:01:01;;;;;;;;;;;21.40;99.90;;;;;;5039076;28;19940;-62
2022/03/06 06:03:28;;;;;;;;;;;21.40;99.90;;;;;;5048019;28;19928;-63
2022/03/06 06:05:56;;;;;;;;;;;21.40;99.90;;;;;;5062016;28;19935;-63
2022/03/06 06:08:23;;;;;;;;;;;21.40;99.90;;;;;;5055340;28;19932;-60
2022/03/06 06:10:50;;;;;;;;;;;21.30;99.90;;;;;;5040792;28;20624;-64
2022/03/06 06:13:19;;;;;;;;;;;21.30;99.90;;;;;;5036141;28;20365;-63
2022/03/06 06:15:46;;;;;;;;;;;21.20;99.90;;;;;;5036684;28;19933;-62
2022/03/06 06:18:13;;;;;;;;;;;21.20;99.90;;;;;;5040861;28;19928;-60
2022/03/06 06:20:40;;;;;;;;;;;21.20;99.90;;;;;;5040896;28;19944;-64
2022/03/06 06:23:07;;;;;;;;;;;21.20;99.90;;;;;;5038812;28;20676;-63
2022/03/06 06:25:34;;;;;;;;;;;21.10;99.90;;;;;;5034460;28;19933;-62
2022/03/06 06:28:01;;;;;;;;;;;21.10;99.90;;;;;;5039917;28;19932;-65
2022/03/06 06:30:29;;;;;;;;;;;21.10;99.90;;;;;;5035185;28;20418;-64
2022/03/06 06:32:56;;;;;;;;;;;21.10;99.90;;;;;;5039122;28;19939;-62
2022/03/06 06:35:23;;;;;;;;;;;21.10;99.90;;;;;;5039263;28;19929;-64
2022/03/06 06:37:50;;;;;;;;;;;21.00;99.90;;;;;;5038704;28;19933;-66
2022/03/06 06:40:18;;;;;;;;;;;21.00;99.90;;;;;;5037328;28;19928;-63
2022/03/06 06:42:45;;;;;;;;;;;21.00;99.90;;;;;;5039651;28;20883;-60
2022/03/06 06:45:12;;;;;;;;;;;20.90;99.90;;;;;;5036389;28;19931;-60
2022/03/06 06:47:39;;;;;;;;;;;20.90;99.90;;;;;;5037903;28;19929;-60
2022/03/06 06:50:07;;;;;;;;;;;20.90;99.90;;;;;;5040562;28;19936;-63
2022/03/06 06:52:34;;;;;;;;;;;20.80;99.90;;;;;;5038594;28;19933;-62
2022/03/06 06:55:02;;;;;;;;;;;20.80;99.90;;;;;;5041364;28;20424;-62
2022/03/06 06:57:29;;;;;;;;;;;20.80;99.90;;;;;;5039507;28;19936;-65
2022/03/06 06:59:56;;;;;;;;;;;20.70;99.90;;;;;;5039391;28;19948;-61
2022/03/06 07:02:24;;;;;;;;;;;20.70;99.90;;;;;;5045808;28;19935;-65
2022/03/06 07:04:57;;;;;;;;;;;20.60;99.90;;;;;;5044661;28;19936;-61
2022/03/06 07:07:24;;;;;;;;;;;20.50;99.90;;;;;;5044858;28;19928;-63
2022/03/06 07:09:51;;;;;;;;;;;20.50;99.90;;;;;;5034506;28;19929;-68
2022/03/06 07:12:18;;;;;;;;;;;20.40;99.90;;;;;;5044419;28;19925;-64
2022/03/06 07:14:45;;;;;;;;;;;20.40;99.90;;;;;;5042068;28;19928;-64
2022/03/06 07:17:12;;;;;;;;;;;20.30;99.90;;;;;;5046396;28;19951;-63
2022/03/06 07:19:39;;;;;;;;;;;20.30;99.90;;;;;;5044793;28;19928;-66
2022/03/06 07:22:06;;;;;;;;;;;20.30;99.90;;;;;;5038803;28;19933;-65
2022/03/06 07:24:33;;;;;;;;;;;20.30;99.90;;;;;;5046321;28;19928;-63
2022/03/06 07:27:01;;;;;;;;;;;20.40;99.90;;;;;;5047140;28;19935;-60
2022/03/06 07:29:28;;;;;;;;;;;20.50;99.90;;;;;;5036755;28;19924;-63
2022/03/06 07:31:55;;;;;;;;;;;20.70;99.90;;;;;;5075398;28;19933;-60
2022/03/06 07:34:22;;;;;;;;;;;20.80;99.90;;;;;;5034471;28;19932;-60
2022/03/06 07:36:50;;;;;;;;;;;20.90;99.90;;;;;;5041985;28;19929;-65
2022/03/06 07:39:17;;;;;;;;;;;20.90;99.90;;;;;;5034541;28;19929;-61
2022/03/06 07:41:44;;;;;;;;;;;20.90;99.90;;;;;;5037188;28;19929;-65
2022/03/06 07:44:12;;;;;;;;;;;20.90;99.70;;;;;;5027149;28;19933;-60
2022/03/06 07:46:39;;;;;;;;;;;20.90;99.60;;;;;;5039142;28;19937;-65
2022/03/06 07:49:06;;;;;;;;;;;20.90;99.50;;;;;;5030175;28;20282;-60
2022/03/06 07:51:33;;;;;;;;;;;21.00;99.40;;;;;;5041193;28;19925;-62
2022/03/06 07:54:00;;;;;;;;;;;20.90;99.20;;;;;;5045287;28;20419;-63
2022/03/06 07:56:27;;;;;;;;;;;20.90;99.00;;;;;;5047181;28;19944;-62
2022/03/06 07:58:54;;;;;;;;;;;20.90;98.70;;;;;;5031224;28;19936;-65
2022/03/06 08:01:23;;;;;;;;;;;20.90;98.60;;;;;;5036739;28;19929;-61
2022/03/06 08:03:51;;;;;;;;;;;20.80;98.40;;;;;;5033098;28;19929;-57
2022/03/06 08:06:18;;;;;;;;;;;20.80;98.20;;;;;;5045032;28;19940;-62
2022/03/06 08:08:45;;;;;;;;;;;20.80;98.00;;;;;;5039156;28;19925;-61
2022/03/06 08:11:13;;;;;;;;;;;20.70;97.80;;;;;;5038368;28;19924;-61
2022/03/06 08:13:40;;;;;;;;;;;20.70;97.80;;;;;;5042916;28;19940;-61
2022/03/06 08:16:07;;;;;;;;;;;20.60;97.50;;;;;;5040112;28;19925;-61
2022/03/06 08:18:34;;;;;;;;;;;20.60;97.40;;;;;;5047789;28;20621;-61
2022/03/06 08:21:01;;;;;;;;;;;20.60;97.20;;;;;;5035551;28;20540;-61
2022/03/06 08:23:29;;;;;;;;;;;20.60;97.20;;;;;;5029565;28;19937;-61
2022/03/06 08:25:56;;;;;;;;;;;20.50;96.90;;;;;;5045026;28;20335;-60
2022/03/06 08:28:23;;;;;;;;;;;20.40;96.90;;;;;;5034079;28;19936;-60
2022/03/06 08:30:50;;;;;;;;;;;20.40;96.70;;;;;;5034551;28;20020;-61
2022/03/06 08:33:17;;;;;;;;;;;20.40;96.60;;;;;;5032552;28;19929;-62
2022/03/06 08:35:44;;;;;;;;;;;20.30;96.40;;;;;;5034930;28;19928;-61
2022/03/06 08:38:16;;;;;;;;;;;20.30;96.40;;;;;;5038501;28;19932;-65
2022/03/06 08:40:44;;;;;;;;;;;20.30;96.30;;;;;;5042299;28;20005;-61
2022/03/06 08:43:11;;;;;;;;;;;20.30;96.10;;;;;;5045749;28;19936;-61
2022/03/06 08:45:38;;;;;;;;;;;20.40;96.00;;;;;;5036974;28;20031;-61
2022/03/06 08:48:05;;;;;;;;;;;20.40;95.90;;;;;;5047134;28;19929;-63
2022/03/06 08:50:32;;;;;;;;;;;20.50;95.60;;;;;;5040145;28;19933;-62
2022/03/06 08:52:59;;;;;;;;;;;20.60;95.40;;;;;;5044691;28;19929;-61
2022/03/06 08:55:27;;;;;;;;;;;20.70;95.10;;;;;;5059076;28;20100;-61
2022/03/06 08:57:54;;;;;;;;;;;20.80;95.00;;;;;;5046477;28;19937;-59
2022/03/06 09:00:21;;;;;;;;;;;20.90;94.90;;;;;;5042423;28;19932;-61
2022/03/06 09:02:48;;;;;;;;;;;20.90;94.70;;;;;;5028554;28;20188;-62
2022/03/06 09:05:16;;;;;;;;;;;21.00;94.60;;;;;;5030933;28;19944;-63
2022/03/06 09:07:43;;;;;;;;;;;21.00;94.40;;;;;;5042995;28;20302;-62
2022/03/06 09:10:10;;;;;;;;;;;21.10;94.20;;;;;;5039835;28;19936;-60
2022/03/06 09:12:38;;;;;;;;;;;21.10;94.10;;;;;;5038654;28;19932;-61
2022/03/06 09:15:06;;;;;;;;;;;21.10;94.00;;;;;;5032841;28;19955;-60
2022/03/06 09:17:34;;;;;;;;;;;21.10;94.00;;;;;;5078735;28;19928;-60
2022/03/06 09:20:02;;;;;;;;;;;21.10;94.00;;;;;;5045961;28;20392;-62
2022/03/06 09:22:29;;;;;;;;;;;21.10;93.80;;;;;;5041861;28;19929;-59
2022/03/06 09:24:56;;;;;;;;;;;21.00;93.90;;;;;;5032563;28;19929;-61
2022/03/06 09:27:23;;;;;;;;;;;21.00;93.80;;;;;;5042739;28;20318;-61
2022/03/06 09:29:51;;;;;;;;;;;21.00;93.80;;;;;;5030883;28;19936;-62
2022/03/06 09:32:18;;;;;;;;;;;21.00;93.80;;;;;;5036840;28;19949;-64
2022/03/06 09:34:45;;;;;;;;;;;20.90;93.80;;;;;;5032097;28;19929;-62
2022/03/06 09:37:12;;;;;;;;;;;20.90;93.80;;;;;;5035219;28;19925;-61
2022/03/06 09:39:39;;;;;;;;;;;20.80;93.80;;;;;;5040539;28;20024;-62
2022/03/06 09:42:07;;;;;;;;;;;20.80;93.70;;;;;;5034345;28;19925;-63
2022/03/06 09:44:36;;;;;;;;;;;20.70;93.70;;;;;;5030270;28;19933;-60
2022/03/06 09:47:04;;;;;;;;;;;20.60;93.80;;;;;;5045645;28;19936;-63
2022/03/06 09:49:32;;;;;;;;;;;20.60;93.80;;;;;;5033619;28;19929;-62
2022/03/06 09:52:01;;;;;;;;;;;20.50;93.90;;;;;;5044076;28;19929;-69
2022/03/06 09:54:29;;;;;;;;;;;20.50;93.80;;;;;;5063344;28;19925;-62
2022/03/06 09:56:57;;;;;;;;;;;20.40;93.80;;;;;;5043344;28;19936;-62
2022/03/06 09:59:24;;;;;;;;;;;20.40;93.70;;;;;;5031610;28;19929;-62
2022/03/06 10:01:51;;;;;;;;;;;20.40;93.60;;;;;;5038577;28;20349;-62
2022/03/06 10:04:20;;;;;;;;;;;20.40;93.50;;;;;;5036879;28;20321;-62
2022/03/06 10:06:57;;;;;;;;;;;20.40;93.30;;;;;;5049036;28;19933;-62
2022/03/06 10:09:24;;;;;;;;;;;20.40;93.30;;;;;;5047996;28;19952;-61
2022/03/06 10:11:53;;;;;;;;;;;20.50;93.20;;;;;;5043716;28;19924;-61
2022/03/06 10:14:38;;;;;;;;;;;20.60;93.10;;;;;;5047878;28;19928;-61
2022/03/06 10:17:13;;;;;;;;;;;20.70;92.90;;;;;;5052865;28;19932;-64
2022/03/06 10:19:50;;;;;;;;;;;20.80;92.70;;;;;;5044523;28;19929;-60
2022/03/06 10:22:19;;;;;;;;;;;20.90;92.50;;;;;;5075562;28;20313;-60
2022/03/06 10:24:47;;;;;;;;;;;20.90;92.40;;;;;;5046293;28;19936;-60
2022/03/06 10:27:15;;;;;;;;;;;20.90;92.30;;;;;;5044025;28;19940;-61
2022/03/06 10:29:43;;;;;;;;;;;21.00;92.20;;;;;;5035503;28;20008;-61
2022/03/06 10:32:10;;;;;;;;;;;21.00;92.20;;;;;;5033776;28;19929;-61
2022/03/06 10:34:38;;;;;;;;;;;21.00;92.10;;;;;;5028712;28;19925;-61
2022/03/06 10:37:06;;;;;;;;;;;21.10;92.00;;;;;;5035712;28;19929;-62
2022/03/06 10:39:43;;;;;;;;;;;21.10;92.00;;;;;;5039445;28;19928;-63
2022/03/06 10:42:10;;;;;;;;;;;21.10;91.90;;;;;;5037705;28;19999;-62
2022/03/06 10:44:46;;;;;;;;;;;21.10;91.90;;;;;;5032278;28;19936;-62
2022/03/06 10:47:17;;;;;;;;;;;21.00;91.90;;;;;;5044320;28;20032;-60
2022/03/06 10:50:00;;;;;;;;;;;21.00;91.80;;;;;;5044950;28;19939;-63
2022/03/06 10:52:27;;;;;;;;;;;20.90;91.70;;;;;;5042006;28;20308;-62
2022/03/06 10:54:56;;;;;;;;;;;20.90;91.70;;;;;;5046173;28;19939;-63
2022/03/06 10:57:24;;;;;;;;;;;20.90;91.80;;;;;;5027166;28;19929;-63
2022/03/06 10:59:51;;;;;;;;;;;20.80;91.70;;;;;;5034052;28;19929;-64
2022/03/06 11:02:20;;;;;;;;;;;20.80;91.70;;;;;;5027353;28;20388;-63
2022/03/06 11:04:48;;;;;;;;;;;20.70;91.70;;;;;;5028474;28;19944;-62
2022/03/06 11:07:15;;;;;;;;;;;20.80;91.70;;;;;;5040964;28;19944;-62
2022/03/06 11:09:44;;;;;;;;;;;20.70;91.70;;;;;;5035809;28;19929;-61
2022/03/06 11:12:11;;;;;;;;;;;20.70;91.70;;;;;;5033386;28;20319;-62
2022/03/06 11:14:39;;;;;;;;;;;20.60;91.70;;;;;;5032166;28;19936;-59
2022/03/06 11:17:06;;;;;;;;;;;20.60;91.70;;;;;;5053606;28;19932;-61
2022/03/06 11:19:34;;;;;;;;;;;20.60;91.70;;;;;;5049947;28;19929;-64
2022/03/06 11:22:13;;;;;;;;;;;20.60;91.70;;;;;;5055496;28;20607;-63
2022/03/06 11:24:45;;;;;;;;;;;20.50;91.70;;;;;;5039415;28;19936;-60
2022/03/06 11:27:21;;;;;;;;;;;20.50;91.70;;;;;;5056097;28;19925;-61
2022/03/06 11:29:57;;;;;;;;;;;20.40;91.60;;;;;;5048124;28;19944;-60
2022/03/06 11:32:28;;;;;;;;;;;20.40;91.60;;;;;;5034410;28;19928;-60
2022/03/06 11:35:07;;;;;;;;;;;20.40;91.70;;;;;;5047245;28;19936;-61
2022/03/06 11:38:00;;;;;;;;;;;20.50;91.60;;;;;;5037466;28;19936;-64
2022/03/06 11:40:48;;;;;;;;;;;20.50;91.50;;;;;;5046623;28;19924;-62
2022/03/06 11:43:30;;;;;;;;;;;20.60;91.30;;;;;;5038059;28;19933;-62
2022/03/06 11:46:12;;;;;;;;;;;20.70;91.20;;;;;;5039509;28;20004;-62
2022/03/06 11:48:39;;;;;;;;;;;20.80;91.10;;;;;;5054268;28;20011;-61
2022/03/06 11:51:16;;;;;;;;;;;20.90;90.90;;;;;;5030749;28;20324;-62
2022/03/06 11:54:03;;;;;;;;;;;20.90;90.80;;;;;;5042660;28;19925;-63
2022/03/06 11:56:33;;;;;;;;;;;21.00;90.80;;;;;;5033249;28;19936;-61
2022/03/06 11:59:01;;;;;;;;;;;20.90;90.70;;;;;;5040722;28;19936;-61
2022/03/06 12:01:32;;;;;;;;;;;21.00;90.70;;;;;;5030177;28;19925;-59
2022/03/06 12:04:09;;;;;;;;;;;21.00;90.60;;;;;;5036602;28;20194;-60
2022/03/06 12:06:38;;;;;;;;;;;21.00;90.60;;;;;;5047938;28;19973;-60
2022/03/06 12:09:16;;;;;;;;;;;21.00;90.50;;;;;;5041300;28;20123;-56
2022/03/06 12:11:44;;;;;;;;;;;21.00;90.40;;;;;;5034973;28;19937;-61
2022/03/06 12:14:16;;;;;;;;;;;20.90;90.40;;;;;;5034534;28;20358;-62
2022/03/06 12:17:06;;;;;;;;;;;20.90;90.30;;;;;;5043501;28;20284;-62
2022/03/06 12:19:53;;;;;;;;;;;20.90;90.30;;;;;;5037335;28;20394;-60
2022/03/06 12:22:22;;;;;;;;;;;20.90;90.40;;;;;;5048452;28;19928;-62
2022/03/06 12:25:09;;;;;;;;;;;20.80;90.30;;;;;;5030639;28;19944;-63
2022/03/06 12:27:40;;;;;;;;;;;20.80;90.30;;;;;;5044288;28;19936;-62
2022/03/06 12:30:12;;;;;;;;;;;20.70;90.40;;;;;;5033177;28;19929;-63
2022/03/06 12:32:40;;;;;;;;;;;20.70;90.30;;;;;;5033842;28;20156;-64
2022/03/06 12:35:08;;;;;;;;;;;20.60;90.30;;;;;;5034245;28;19933;-62
2022/03/06 12:37:36;;;;;;;;;;;20.60;90.20;;;;;;5042049;28;20409;-60
2022/03/06 12:40:05;;;;;;;;;;;20.60;90.30;;;;;;5032410;28;20009;-61
2022/03/06 12:42:33;;;;;;;;;;;20.60;90.30;;;;;;5037791;28;19929;-64
2022/03/06 12:45:02;;;;;;;;;;;20.60;90.30;;;;;;5032867;28;19944;-63
2022/03/06 12:47:29;;;;;;;;;;;20.50;90.20;;;;;;5034446;28;19929;-62
2022/03/06 12:49:59;;;;;;;;;;;20.50;90.20;;;;;;5036511;28;19929;-61
2022/03/06 12:52:27;;;;;;;;;;;20.50;90.20;;;;;;5042946;28;20502;-60
2022/03/06 12:55:03;;;;;;;;;;;20.60;90.40;;;;;;5036761;28;19948;-61
2022/03/06 12:57:31;;;;;;;;;;;20.60;90.10;;;;;;5068867;28;19929;-63
2022/03/06 12:59:58;;;;;;;;;;;20.70;90.00;;;;;;5035430;28;20460;-63
2022/03/06 13:02:26;;;;;;;;;;;20.70;89.80;;;;;;5037748;28;19933;-63
2022/03/06 13:04:54;;;;;;;;;;;20.80;89.50;;;;;;5032174;28;19974;-61
2022/03/06 13:07:28;;;;;;;;;;;20.90;89.30;;;;;;5038470;28;19929;-61
2022/03/06 13:09:59;;;;;;;;;;;21.00;89.30;;;;;;5030866;28;19944;-62
2022/03/06 13:12:27;;;;;;;;;;;21.10;88.90;;;;;;5040763;28;20423;-62
2022/03/06 13:14:54;;;;;;;;;;;21.10;88.60;;;;;;5039000;28;19951;-65
2022/03/06 13:17:22;;;;;;;;;;;21.20;88.30;;;;;;5069137;28;20305;-63
2022/03/06 13:19:55;;;;;;;;;;;21.20;88.30;;;;;;5031038;28;19929;-62
2022/03/06 13:22:26;;;;;;;;;;;21.20;88.20;;;;;;5040356;28;19926;-60
2022/03/06 13:24:55;;;;;;;;;;;21.20;88.10;;;;;;5036999;28;20300;-59
2022/03/06 13:27:26;;;;;;;;;;;21.20;88.40;;;;;;5042149;28;19929;-63
2022/03/06 13:30:11;;;;;;;;;;;21.20;88.20;;;;;;5030752;28;20397;-60
2022/03/06 13:32:49;;;;;;;;;;;21.20;88.30;;;;;;5060643;28;19929;-62
2022/03/06 13:35:31;;;;;;;;;;;21.20;88.20;;;;;;5035229;28;19943;-63
2022/03/06 13:37:59;;;;;;;;;;;21.20;88.20;;;;;;5046981;28;20272;-62
2022/03/06 13:40:27;;;;;;;;;;;21.20;88.20;;;;;;5037547;28;19960;-64
2022/03/06 13:42:55;;;;;;;;;;;21.20;88.20;;;;;;5041755;28;19928;-63
2022/03/06 13:45:22;;;;;;;;;;;21.20;88.30;;;;;;5037220;28;19925;-63
2022/03/06 13:47:57;;;;;;;;;;;21.20;88.50;;;;;;5048673;28;19936;-62
2022/03/06 13:50:26;;;;;;;;;;;21.20;88.60;;;;;;5031090;28;19930;-62
2022/03/06 13:52:54;;;;;;;;;;;21.10;88.50;;;;;;5039891;28;19924;-59
2022/03/06 13:55:22;;;;;;;;;;;21.10;88.50;;;;;;5032849;28;19929;-63
2022/03/06 13:58:01;;;;;;;;;;;21.10;89.00;;;;;;5035024;28;20047;-63
2022/03/06 14:00:30;;;;;;;;;;;21.10;89.30;;;;;;5029886;28;19929;-55
2022/03/06 14:03:01;;;;;;;;;;;21.10;89.10;;;;;;5045701;28;20003;-62
2022/03/06 14:05:39;;;;;;;;;;;21.10;89.10;;;;;;5046202;28;19929;-62
2022/03/06 14:08:26;;;;;;;;;;;20.90;88.70;;;;;;5042576;28;20285;-62
2022/03/06 14:10:55;;;;;;;;;;;20.90;89.20;;;;;;5033815;28;19939;-60
2022/03/06 14:13:25;;;;;;;;;;;20.80;88.90;;;;;;5031413;28;19925;-63
2022/03/06 14:15:54;;;;;;;;;;;20.70;88.90;;;;;;5036817;28;19929;-65
2022/03/06 14:18:31;;;;;;;;;;;20.70;88.80;;;;;;5034085;28;19940;-64
2022/03/06 14:20:59;;;;;;;;;;;20.70;88.90;;;;;;5046740;28;20291;-66
2022/03/06 14:23:27;;;;;;;;;;;20.70;88.30;;;;;;5028601;28;20255;-64
2022/03/06 14:25:54;;;;;;;;;;;20.70;88.10;;;;;;5032532;28;19952;-63